Flight Track Log - Related Links

Times and Time Zones

All times are in EDT time to prevent confusion due to time zone crossing. See the USC105 flight status page for this flight to view local times or setup timezone preferences in your user account.

Time Position Orientation Groundspeed Altitude Reporting Facility
EDT Latitude Longitude Course Direction KTS MPH feet Rate Location/Type
Thu 11:18:35 PM 41.5292 -81.7119 328° Northwest 114 131 1,400  Level Cleveland Center
Thu 11:19:36 PM 41.5497 -81.7375 317° Northwest 100 115 2,300 843 Climbing Cleveland Center
Thu 11:20:36 PM 41.5744 -81.7656 320° Northwest 116 133 3,100 744 Climbing Cleveland Center
Thu 11:21:37 PM 41.5864 -81.8103 290° West 127 146 3,800 787 Climbing Cleveland Center
Thu 11:22:38 PM 41.6006 -81.8522 294° West 124 143 4,700 893 Climbing Cleveland Center
Thu 11:23:38 PM 41.6128 -81.8939 291° West 117 135 5,600 942 Climbing Cleveland Center
Thu 11:24:39 PM 41.6269 -81.9333 296° West 116 133 6,600 797 Climbing Cleveland Center
Thu 11:25:46 PM 41.6408 -81.9836 290° West 127 146 7,300 614 Climbing Cleveland Center
Thu 11:26:46 PM 41.6547 -82.0311 291° West 141 162 7,900 347 Climbing Cleveland Center
Thu 11:27:47 PM 41.6728 -82.0869 293° West 175 201 8,000 50 Climbing Cleveland Center
Thu 11:28:47 PM 41.6928 -82.1458 294° West 175 201 8,000  Level Cleveland Center
Thu 11:29:48 PM 41.7086 -82.2047 290° West 178 205 8,000 -52 Level Cleveland Center
Thu 11:30:43 PM 41.7286 -82.2664 294° West 183 211 7,900 -52 Descending Cleveland Center
Thu 11:31:43 PM 41.7486 -82.3281 294° West 183 211 7,900  Level Cleveland Center
Thu 11:32:44 PM 41.7664 -82.3900 291° West 182 209 7,900  Level Cleveland Center
Thu 11:33:21 PM 41.7825 -82.4294 299° West 183 211 7,900  Level Cleveland Center
Thu 11:34:22 PM 41.8022 -82.4939 292° West 185 213 7,900  Level Cleveland Center
Thu 11:35:16 PM 41.8222 -82.5531 294° West 184 212 7,900  Level Cleveland Center
Thu 11:36:17 PM 41.8397 -82.6150 291° West 183 211 7,900  Level Cleveland Center
Thu 11:37:18 PM 41.8786 -82.6664 315° West 229 264 7,900 -50 Level Cleveland Center
Thu 11:38:18 PM 41.9086 -82.7261 304° West 186 214 7,800  Descending Cleveland Center
Thu 11:39:13 PM 41.9389 -82.7800 307° West 201 231 7,900 55 Climbing Cleveland Center
Thu 11:40:07 PM 41.9650 -82.8311 305° West 185 213 7,900 -50 Level Cleveland Center
Thu 11:41:14 PM 41.9992 -82.8911 307° West 185 213 7,800 -281 Descending Cleveland Center
Thu 11:42:15 PM 42.0272 -82.9453 305° West 190 219 7,300 -645 Descending Cleveland Center
Thu 11:43:15 PM 42.0614 -83.0081 306° West 205 236 6,500 -694 Descending Cleveland Center
Thu 11:44:16 PM 42.0997 -83.0739 308° West 203 234 5,900 -569 Descending Cleveland Center
Thu 11:45:11 PM 42.1278 -83.1281 305° West 197 227 5,400 -678 Descending Cleveland Center
Thu 11:46:11 PM 42.1575 -83.1881 304° West 195 224 4,600 -678 Descending Cleveland Center
Thu 11:47:06 PM 42.1814 -83.2367 304° West 184 212 4,100 -639 Descending Cleveland Center
Thu 11:48:13 PM 42.1922 -83.3100 281° West 163 188 3,300 -541 Descending Cleveland Center
Thu 11:49:19 PM 42.2075 -83.3753 288° West 162 186 2,900 -451 Descending Cleveland Center
Thu 11:50:26 PM 42.2311 -83.4325 299° West 164 189 2,300 -516 Descending Cleveland Center
Thu 11:51:27 PM 42.2486 -83.4808 296° West 135 155 1,800 -492 Descending Cleveland Center
Thu 11:53:00 PM 42.2393 -83.5310 256° West  Level Estimated
Fri 12:00:00 AM 42.2393 -83.5310 43° Northeast  Level Estimated
Fri 12:01:00 AM 42.2393 -83.5310 43° Northeast  Level Estimated

Login

Don't have an account? Register now (free) for customized features, flight alerts, and more!